Kedves Pilóták, Oktatók, Növendékek!

Az alábbi menüpontban szeretnénk összefoglalni néhány fontos és hasznos információt, linket, amely segíthet a repülések megtervezésében.

Ha bármilyen javaslatod van a tartalommal kapcsolatban, kérlek Ez az e-mail-cím a szpemrobotok elleni védelem alatt áll. Megtekintéséhez engedélyeznie kell a JavaScript használatát.meg nekünk.

 

Jó leszállást!

Repüléssel kapcsolatos hírek

2019. január 24.

IHO.hu - - Repülés RSS

Felhőkép 

Felhőkép

Széltérkép

Széltérkép

Győr-Pér Repülőtér

Élő webkamera kép

 Nagyobb kép

Győr-Pér Repülőtér

[Source: ADDS]
METAR
LHPR 240245Z AUTO 34004KT 6000 BKN020 M02/M02 Q1003 RMK WHT =
AMD LHPR 232205Z 2322/2403 VRB03KT 5000 BR OVC005 PROB40 2322/2403 1500 -SG BCFG BR OVC002
TAF
AMD LHPR 232205Z 2322/2403 VRB03KT 5000 BR OVC005 PROB40 2322/2403 1500 -SG BCFG BR OVC002 =
SR / SS: 06:24 / 15:37 UTC (Napkelte / Napnyugta 2019-01-24)

Kapcsolat

Telephely:     9099 Pér, Repülõtér

Klubhelyiség: 9021 Gyõr, Városház tér 3.

E-mail: info@aeroclub-gyor.hu

Telefon: 06-20-777-9106

Adószám: 19113832-2-08

  
Joomla űrlapépítő by JoomlaShine
JSN Metro template designed by JoomlaShine.com